Time;durP1;ratioP1;P1;durP2;ratioP2;P2;SDS_P1;SDS_P2;PMS_P1;PMS_P2;Temp;Humidity;BMP_temperature;BMP_pressure;BME280_temperature;BME280_humidity;BME280_pressure;Samples;Min_cycle;Max_cycle;Signal;HPM_P1;HPM_P2
2022/06/27 00:01:26;;;;;;;13.30;2.45;;;;;;;16.08;100.00;97720.47;5124676;27;20056;-93
2022/06/27 00:03:52;;;;;;;10.38;2.10;;;;;;;15.85;100.00;97722.41;5131471;27;20106;-93
2022/06/27 00:06:22;;;;;;;14.70;1.90;;;;;;;15.96;100.00;97717.47;5134262;27;20382;-92
2022/06/27 00:08:48;;;;;;;13.57;2.10;;;;;;;15.83;100.00;97719.00;5112069;27;20023;-93
2022/06/27 00:11:14;;;;;;;10.68;2.00;;;;;;;15.86;100.00;97722.31;5113252;27;20038;-93
2022/06/27 00:13:41;;;;;;;13.75;2.28;;;;;;;16.11;100.00;97713.28;5111989;27;20045;-93
2022/06/27 00:16:07;;;;;;;15.98;2.35;;;;;;;15.89;100.00;97713.44;5129283;27;20038;-94
2022/06/27 00:18:32;;;;;;;17.63;2.53;;;;;;;15.88;100.00;97722.28;5111993;27;20031;-91
2022/06/27 00:21:00;;;;;;;11.15;2.05;;;;;;;16.03;100.00;97718.91;5111693;27;20616;-90
2022/06/27 00:23:26;;;;;;;12.25;2.05;;;;;;;15.68;100.00;97723.16;5110170;27;20030;-91
2022/06/27 00:25:51;;;;;;;13.95;2.40;;;;;;;15.82;100.00;97720.78;5131657;27;20019;-91
2022/06/27 00:28:17;;;;;;;10.88;1.83;;;;;;;15.60;100.00;97725.28;5110426;27;20806;-91
2022/06/27 00:30:43;;;;;;;13.07;2.25;;;;;;;15.58;100.00;97724.53;5111224;27;20094;-91
2022/06/27 00:33:08;;;;;;;11.25;2.17;;;;;;;15.55;100.00;97722.88;5128626;27;20070;-91
2022/06/27 00:35:35;;;;;;;11.55;1.80;;;;;;;15.28;100.00;97717.09;5111020;27;20042;-92
2022/06/27 00:38:00;;;;;;;12.77;1.85;;;;;;;15.60;100.00;97710.41;5110918;27;20116;-91
2022/06/27 00:40:26;;;;;;;9.30;1.90;;;;;;;15.45;100.00;97714.56;5109018;27;20027;-91
2022/06/27 00:42:52;;;;;;;10.23;2.15;;;;;;;15.77;100.00;97720.13;5111571;27;20031;-91
2022/06/27 00:45:17;;;;;;;13.00;2.30;;;;;;;15.66;100.00;97717.13;5127911;27;20102;-92
2022/06/27 00:47:43;;;;;;;15.40;2.35;;;;;;;15.69;100.00;97709.94;5113346;27;20031;-91
2022/06/27 00:50:09;;;;;;;18.85;2.65;;;;;;;15.48;100.00;97713.59;5114306;27;20027;-92
2022/06/27 00:52:36;;;;;;;11.02;2.10;;;;;;;15.22;100.00;97712.97;5112346;27;20395;-92
2022/06/27 00:55:02;;;;;;;8.00;1.95;;;;;;;15.29;100.00;97710.94;5107762;27;20097;-92
2022/06/27 00:57:28;;;;;;;11.45;1.92;;;;;;;15.40;100.00;97706.03;5107342;27;20065;-92
2022/06/27 00:59:54;;;;;;;12.45;2.20;;;;;;;15.50;100.00;97703.84;5111929;27;20027;-92
2022/06/27 01:02:19;;;;;;;15.10;2.22;;;;;;;15.84;100.00;97704.94;5129471;27;20023;-92
2022/06/27 01:04:51;;;;;;;13.00;2.50;;;;;;;15.61;100.00;97700.72;5128337;27;20027;-92
2022/06/27 01:07:17;;;;;;;15.45;2.30;;;;;;;15.53;100.00;97701.06;5127809;27;20027;-92
2022/06/27 01:09:43;;;;;;;11.65;2.35;;;;;;;15.34;100.00;97706.34;5112449;27;20049;-92
2022/06/27 01:12:09;;;;;;;13.52;2.78;;;;;;;14.90;100.00;97704.75;5112575;27;20034;-92
2022/06/27 01:14:35;;;;;;;13.15;2.03;;;;;;;15.39;100.00;97714.84;5113201;27;20031;-92
2022/06/27 01:17:01;;;;;;;11.05;2.30;;;;;;;15.31;100.00;97709.94;5129957;27;20160;-92
2022/06/27 01:19:27;;;;;;;14.45;2.63;;;;;;;15.28;100.00;97712.72;5114738;27;20033;-92
2022/06/27 01:21:55;;;;;;;18.30;2.78;;;;;;;15.02;100.00;97698.97;5127417;27;20110;-92
2022/06/27 01:24:23;;;;;;;12.63;2.20;;;;;;;15.51;100.00;97700.31;5113590;27;20030;-92
2022/06/27 01:26:49;;;;;;;12.27;2.75;;;;;;;15.06;100.00;97706.69;5114992;27;20122;-93
2022/06/27 01:29:16;;;;;;;11.40;2.25;;;;;;;15.10;100.00;97703.00;5110246;27;20782;-92
2022/06/27 01:31:43;;;;;;;13.38;2.55;;;;;;;15.35;100.00;97705.38;5129803;27;20126;-92
2022/06/27 01:34:09;;;;;;;12.57;2.25;;;;;;;15.27;100.00;97704.91;5126443;27;20023;-92
2022/06/27 01:36:41;;;;;;;12.65;2.42;;;;;;;15.19;100.00;97707.88;5127732;27;20023;-91
2022/06/27 01:39:09;;;;;;;9.70;2.10;;;;;;;15.17;100.00;97712.31;5113857;27;20034;-91
2022/06/27 01:41:34;;;;;;;14.93;2.33;;;;;;;15.46;100.00;97710.16;5113724;27;20087;-90
2022/06/27 01:44:01;;;;;;;14.77;2.55;;;;;;;15.33;100.00;97705.47;5113264;27;20031;-91
2022/06/27 01:46:53;;;;;;;10.05;2.15;;;;;;;14.99;100.00;97706.13;5112999;27;20024;-92
2022/06/27 01:49:20;;;;;;;9.40;2.45;;;;;;;15.12;100.00;97709.06;5127315;27;20030;-91
2022/06/27 01:51:49;;;;;;;12.25;2.58;;;;;;;15.29;100.00;97706.50;5109484;27;20451;-92
2022/06/27 01:54:16;;;;;;;14.02;2.20;;;;;;;15.22;100.00;97714.75;5126523;27;20493;-92
2022/06/27 01:56:44;;;;;;;10.18;2.20;;;;;;;15.35;100.00;97713.25;5110387;27;20119;-92
2022/06/27 01:59:11;;;;;;;11.40;2.17;;;;;;;15.04;100.00;97704.13;5112514;27;20034;-92
2022/06/27 02:01:38;;;;;;;13.32;2.42;;;;;;;14.88;100.00;97709.22;5109334;27;20083;-92
2022/06/27 02:04:05;;;;;;;12.02;2.17;;;;;;;15.28;100.00;97706.59;5108833;27;20015;-92
2022/06/27 02:06:31;;;;;;;12.93;2.50;;;;;;;15.07;100.00;97708.41;5109631;27;20039;-91
2022/06/27 02:08:58;;;;;;;11.35;2.35;;;;;;;14.90;100.00;97711.78;5126414;27;20050;-91
2022/06/27 02:11:25;;;;;;;14.50;2.55;;;;;;;14.78;100.00;97715.75;5108537;27;20019;-91
2022/06/27 02:13:52;;;;;;;12.80;2.40;;;;;;;15.27;100.00;97718.03;5111409;27;20077;-91
2022/06/27 02:16:19;;;;;;;12.45;2.28;;;;;;;15.11;100.00;97705.56;5109750;27;20036;-92
2022/06/27 02:18:47;;;;;;;10.40;2.50;;;;;;;15.16;100.00;97715.88;5125987;27;20073;-92
2022/06/27 02:21:19;;;;;;;15.90;2.90;;;;;;;14.90;100.00;97720.50;5109235;28;20027;-91
2022/06/27 02:23:45;;;;;;;10.75;2.20;;;;;;;15.00;100.00;97718.31;5111839;27;20023;-92
2022/06/27 02:26:12;;;;;;;12.18;2.20;;;;;;;14.82;100.00;97726.09;5128808;27;20084;-92
2022/06/27 02:28:38;;;;;;;11.52;2.10;;;;;;;14.81;100.00;97723.53;5127155;27;20535;-92
2022/06/27 02:31:05;;;;;;;13.18;2.20;;;;;;;14.71;100.00;97720.44;5128815;27;20046;-91
2022/06/27 02:33:43;;;;;;;16.73;2.25;;;;;;;14.81;100.00;97715.66;5110065;27;20118;-93
2022/06/27 02:36:13;;;;;;;10.10;2.15;;;;;;;14.79;100.00;97720.94;5112837;27;20031;-91
2022/06/27 02:38:41;;;;;;;20.27;2.58;;;;;;;14.73;100.00;97720.38;5109401;27;20027;-92
2022/06/27 02:41:12;;;;;;;14.02;2.05;;;;;;;15.05;100.00;97718.97;5119331;27;20035;-93
2022/06/27 02:43:41;;;;;;;11.70;1.90;;;;;;;14.79;100.00;97720.09;5107102;27;20557;-92
2022/06/27 02:46:08;;;;;;;12.98;2.47;;;;;;;14.76;100.00;97720.25;5111249;27;20035;-92
2022/06/27 02:48:36;;;;;;;10.52;2.13;;;;;;;15.08;100.00;97718.00;5110942;27;20023;-92
2022/06/27 02:51:13;;;;;;;11.85;2.47;;;;;;;15.17;100.00;97714.94;5114939;28;20019;-93
2022/06/27 02:53:46;;;;;;;13.77;2.53;;;;;;;14.89;100.00;97710.94;5108590;28;20053;-92
2022/06/27 02:56:21;;;;;;;12.30;2.20;;;;;;;15.06;100.00;97706.69;5107247;27;20031;-92
2022/06/27 02:59:11;;;;;;;11.52;2.45;;;;;;;14.98;100.00;97710.50;5111215;28;20351;-91
2022/06/27 03:01:41;;;;;;;11.60;2.33;;;;;;;14.95;100.00;97705.41;5125223;27;20027;-92
2022/06/27 03:04:07;;;;;;;10.32;2.10;;;;;;;15.02;100.00;97706.00;5111181;27;20093;-91
2022/06/27 03:06:35;;;;;;;16.90;2.58;;;;;;;14.71;100.00;97709.94;5110817;27;20031;-92
2022/06/27 03:09:01;;;;;;;10.48;2.65;;;;;;;15.04;100.00;97703.28;5130409;28;20049;-92
2022/06/27 03:11:28;;;;;;;10.75;2.28;;;;;;;15.42;100.00;97706.84;5112128;28;20090;-91
2022/06/27 03:13:54;;;;;;;17.80;2.53;;;;;;;15.01;100.00;97707.75;5112681;28;20037;-92
2022/06/27 03:16:23;;;;;;;11.77;2.40;;;;;;;15.15;100.00;97706.28;5128020;28;20057;-92
2022/06/27 03:18:50;;;;;;;14.70;2.60;;;;;;;15.09;100.00;97698.69;5111084;28;20038;-91
2022/06/27 03:21:20;;;;;;;11.98;2.63;;;;;;;14.95;100.00;97694.91;5110962;28;20027;-91
2022/06/27 03:23:49;;;;;;;14.05;2.50;;;;;;;15.15;100.00;97698.41;5108965;28;20035;-91
2022/06/27 03:26:17;;;;;;;11.77;2.58;;;;;;;15.38;100.00;97702.63;5110449;28;20564;-92
2022/06/27 03:28:45;;;;;;;14.18;2.40;;;;;;;14.88;100.00;97695.22;5111573;28;20050;-92
2022/06/27 03:31:11;;;;;;;12.70;2.40;;;;;;;14.91;100.00;97693.31;5111670;28;20061;-92
2022/06/27 03:33:37;;;;;;;11.68;2.67;;;;;;;14.86;100.00;97692.66;5129096;28;20042;-92
2022/06/27 03:36:04;;;;;;;10.63;2.30;;;;;;;14.72;100.00;97695.03;5112130;28;20039;-92
2022/06/27 03:38:30;;;;;;;12.20;2.38;;;;;;;15.05;100.00;97689.25;5111099;28;20049;-91
2022/06/27 03:40:57;;;;;;;13.90;2.35;;;;;;;14.82;100.00;97689.34;5130187;27;20066;-92
2022/06/27 03:43:23;;;;;;;13.98;2.40;;;;;;;15.26;100.00;97690.06;5115171;27;20748;-92
2022/06/27 03:45:50;;;;;;;18.23;2.85;;;;;;;15.08;100.00;97689.13;5117495;27;20058;-92
2022/06/27 03:51:00;;;;;;;12.85;2.30;;;;;;;15.01;100.00;97686.75;5134465;27;20076;-92
2022/06/27 03:53:26;;;;;;;14.75;2.40;;;;;;;15.11;100.00;97692.44;5120856;27;20027;-91
2022/06/27 03:55:52;;;;;;;14.80;3.13;;;;;;;15.13;100.00;97681.88;5122326;27;20398;-91
2022/06/27 03:58:18;;;;;;;14.07;2.80;;;;;;;15.22;100.00;97685.88;5122860;27;20031;-91
2022/06/27 04:00:44;;;;;;;13.70;2.28;;;;;;;15.05;100.00;97682.22;5120721;27;20035;-91
2022/06/27 04:03:09;;;;;;;13.32;2.60;;;;;;;14.96;100.00;97680.88;5120576;27;20031;-91
2022/06/27 04:05:35;;;;;;;13.55;2.75;;;;;;;15.33;100.00;97683.59;5136375;27;20019;-93
2022/06/27 04:08:01;;;;;;;14.55;2.97;;;;;;;15.04;100.00;97682.28;5114365;27;20593;-92
2022/06/27 04:10:27;;;;;;;15.02;2.88;;;;;;;15.02;100.00;97687.63;5116283;27;20109;-92
2022/06/27 04:12:52;;;;;;;16.75;2.70;;;;;;;14.85;100.00;97689.19;5112505;27;20167;-93
2022/06/27 04:15:18;;;;;;;13.68;2.90;;;;;;;14.82;100.00;97677.97;5117015;27;20022;-93
2022/06/27 04:17:43;;;;;;;11.32;2.65;;;;;;;14.88;100.00;97688.22;5115684;27;20406;-92
2022/06/27 04:20:09;;;;;;;15.65;2.50;;;;;;;14.95;100.00;97686.19;5113353;27;20084;-93
2022/06/27 04:22:38;;;;;;;15.90;2.80;;;;;;;14.77;100.00;97693.09;5115137;27;20546;-93
2022/06/27 04:25:04;;;;;;;12.65;2.20;;;;;;;14.68;100.00;97689.94;5113817;27;20062;-92
2022/06/27 04:27:30;;;;;;;14.10;2.72;;;;;;;14.96;100.00;97691.38;5113412;27;20033;-93
2022/06/27 04:29:56;;;;;;;16.70;2.83;;;;;;;14.73;100.00;97686.25;5115316;27;20428;-92
2022/06/27 04:32:22;;;;;;;11.55;2.63;;;;;;;14.81;100.00;97695.50;5115747;27;20034;-92
2022/06/27 04:34:49;;;;;;;13.18;2.90;;;;;;;14.61;100.00;97688.47;5115058;27;20160;-93
2022/06/27 04:37:18;;;;;;;12.85;2.55;;;;;;;14.57;100.00;97684.25;5118029;27;20053;-92
2022/06/27 04:39:44;;;;;;;15.65;2.63;;;;;;;15.09;100.00;97690.81;5129550;27;20023;-93
2022/06/27 04:42:10;;;;;;;11.57;2.60;;;;;;;14.69;100.00;97680.28;5113111;27;20126;-92
2022/06/27 04:44:37;;;;;;;12.70;2.60;;;;;;;14.80;100.00;97693.78;5115242;27;20249;-93
2022/06/27 04:47:08;;;;;;;14.18;2.83;;;;;;;14.63;100.00;97683.19;5115476;27;20023;-93
2022/06/27 04:49:36;;;;;;;11.30;2.63;;;;;;;15.08;100.00;97691.75;5117729;27;20023;-93
2022/06/27 04:52:04;;;;;;;15.18;2.85;;;;;;;14.75;100.00;97694.91;5116897;27;20111;-93
2022/06/27 04:54:30;;;;;;;11.82;2.75;;;;;;;14.91;100.00;97701.19;5111719;28;20135;-93
2022/06/27 04:56:58;;;;;;;15.48;2.95;;;;;;;14.95;100.00;97691.44;5114151;28;20063;-94
2022/06/27 04:59:24;;;;;;;14.63;2.80;;;;;;;15.00;100.00;97695.56;5110662;27;20031;-95
2022/06/27 05:01:50;;;;;;;13.77;2.83;;;;;;;14.44;100.00;97698.81;5112892;27;20053;-94
2022/06/27 05:05:11;;;;;;;11.27;2.55;;;;;;;14.95;100.00;97704.56;5113742;28;20024;-92
2022/06/27 05:08:41;;;;;;;13.82;2.90;;;;;;;14.90;100.00;97702.13;5114630;28;20035;-93
2022/06/27 05:11:06;;;;;;;12.55;2.45;;;;;;;15.32;100.00;97705.53;5114332;28;20031;-94
2022/06/27 05:13:32;;;;;;;9.13;2.10;;;;;;;15.58;100.00;97703.50;5114837;28;20423;-93
2022/06/27 05:15:58;;;;;;;12.68;3.15;;;;;;;15.58;100.00;97706.97;5115560;27;20057;-94
2022/06/27 05:18:33;;;;;;;11.15;2.60;;;;;;;15.12;100.00;97717.78;5114827;28;20083;-93
2022/06/27 05:20:59;;;;;;;12.07;2.42;;;;;;;15.47;100.00;97722.38;5112150;28;20031;-93
2022/06/27 05:23:25;;;;;;;15.82;2.92;;;;;;;15.22;100.00;97728.72;5113405;28;20032;-94
2022/06/27 05:25:51;;;;;;;13.80;2.58;;;;;;;15.49;100.00;97725.78;5109794;28;20034;-95
2022/06/27 05:28:16;;;;;;;11.32;2.90;;;;;;;15.40;100.00;97724.44;5114816;28;20031;-93
2022/06/27 05:30:42;;;;;;;11.30;2.47;;;;;;;15.14;100.00;97729.09;5114365;28;20032;-94
2022/06/27 05:33:08;;;;;;;13.05;2.20;;;;;;;15.60;100.00;97726.16;5114601;28;20027;-93
2022/06/27 05:35:33;;;;;;;13.90;3.13;;;;;;;15.75;100.00;97734.25;5114698;28;20038;-94
2022/06/27 05:37:59;;;;;;;13.05;2.97;;;;;;;15.63;100.00;97726.03;5112084;28;20478;-94
2022/06/27 05:40:25;;;;;;;12.20;2.50;;;;;;;15.57;100.00;97734.16;5117645;27;20084;-94
2022/06/27 05:42:53;;;;;;;10.52;2.60;;;;;;;15.53;100.00;97733.47;5115847;27;20502;-95
2022/06/27 05:45:20;;;;;;;15.00;2.80;;;;;;;15.52;100.00;97738.81;5114718;27;20488;-94
2022/06/27 05:47:46;;;;;;;13.35;2.45;;;;;;;15.72;100.00;97734.41;5114003;27;20104;-94
2022/06/27 05:50:12;;;;;;;13.93;2.65;;;;;;;15.47;100.00;97746.88;5114616;27;20466;-93
2022/06/27 05:52:39;;;;;;;13.57;2.33;;;;;;;15.63;100.00;97741.78;5113147;28;20039;-93
2022/06/27 05:55:11;;;;;;;12.93;2.75;;;;;;;15.82;100.00;97743.59;5115907;28;20032;-94
2022/06/27 05:57:37;;;;;;;12.45;2.45;;;;;;;15.73;100.00;97747.47;5112578;28;20062;-95
2022/06/27 06:00:03;;;;;;;11.02;2.55;;;;;;;15.64;100.00;97748.75;5115145;28;20487;-94
2022/06/27 06:02:29;;;;;;;12.70;2.60;;;;;;;15.82;100.00;97746.22;5113133;28;20100;-95
2022/06/27 06:04:57;;;;;;;11.63;2.40;;;;;;;15.36;100.00;97755.25;5113371;28;20433;-95
2022/06/27 06:07:23;;;;;;;15.13;2.67;;;;;;;16.00;100.00;97750.59;5112000;28;20026;-95
2022/06/27 06:09:49;;;;;;;10.05;2.10;;;;;;;15.69;100.00;97752.00;5115517;28;20019;-94
2022/06/27 06:12:18;;;;;;;14.43;2.45;;;;;;;15.45;100.00;97748.72;5114955;28;20118;-95
2022/06/27 06:14:46;;;;;;;11.15;2.38;;;;;;;16.01;100.00;97743.59;5114073;28;20126;-95
2022/06/27 06:17:13;;;;;;;13.45;2.30;;;;;;;15.75;100.00;97744.78;5110416;28;20072;-96
2022/06/27 06:19:39;;;;;;;10.25;2.00;;;;;;;15.94;100.00;97743.00;5112715;28;20126;-95
2022/06/27 06:22:06;;;;;;;14.30;2.60;;;;;;;15.93;100.00;97743.94;5112421;28;20479;-95
2022/06/27 06:28:04;;;;;;;14.00;2.10;;;;;;;15.87;100.00;97750.34;5117171;28;20034;-95
2022/06/27 06:30:31;;;;;;;11.82;2.22;;;;;;;15.61;100.00;97746.25;5115989;28;20106;-95
2022/06/27 06:33:02;;;;;;;11.23;2.55;;;;;;;16.12;100.00;97749.19;5115201;28;20054;-96
2022/06/27 06:35:28;;;;;;;10.88;2.42;;;;;;;16.32;100.00;97750.00;5110929;28;20471;-94
2022/06/27 06:38:07;;;;;;;10.95;2.30;;;;;;;16.10;100.00;97761.53;5110518;28;20134;-96
2022/06/27 06:40:36;;;;;;;8.48;2.05;;;;;;;15.85;100.00;97760.09;5110664;28;20553;-95
2022/06/27 06:43:04;;;;;;;11.52;2.00;;;;;;;15.61;100.00;97759.38;5115075;28;20028;-95
2022/06/27 06:45:30;;;;;;;12.35;2.00;;;;;;;15.82;100.00;97759.34;5113948;28;20034;-95
2022/06/27 06:47:59;;;;;;;9.50;2.60;;;;;;;15.91;100.00;97764.19;5110993;28;20035;-94
2022/06/27 06:50:25;;;;;;;12.57;2.20;;;;;;;16.29;100.00;97756.25;5114277;28;20027;-95
2022/06/27 06:52:52;;;;;;;10.38;2.10;;;;;;;16.29;100.00;97758.88;5113370;28;20065;-94
2022/06/27 06:55:22;;;;;;;9.82;2.17;;;;;;;16.22;100.00;97757.47;5110916;28;20039;-95
2022/06/27 06:57:54;;;;;;;10.00;2.33;;;;;;;16.59;100.00;97763.59;5110975;28;20092;-95
2022/06/27 07:00:20;;;;;;;11.18;2.60;;;;;;;15.94;100.00;97765.84;5113409;28;20118;-94
2022/06/27 07:02:46;;;;;;;12.48;2.63;;;;;;;16.10;100.00;97758.06;5111504;28;20066;-95
2022/06/27 07:05:16;;;;;;;12.73;2.10;;;;;;;16.44;100.00;97757.28;5112881;28;20027;-95
2022/06/27 07:07:42;;;;;;;11.70;2.03;;;;;;;16.88;100.00;97759.53;5112862;28;20028;-94
2022/06/27 07:10:12;;;;;;;12.98;2.20;;;;;;;17.08;100.00;97756.78;5113905;28;20034;-94
2022/06/27 07:12:38;;;;;;;8.43;1.92;;;;;;;16.70;100.00;97763.91;5117947;28;20023;-94
2022/06/27 07:15:09;;;;;;;6.35;1.80;;;;;;;16.88;100.00;97759.53;5114068;28;20046;-95
2022/06/27 07:17:47;;;;;;;9.07;1.80;;;;;;;16.80;100.00;97760.78;5120849;28;20055;-95
2022/06/27 07:20:18;;;;;;;10.93;1.92;;;;;;;17.13;100.00;97762.66;5134237;27;20028;-96
2022/06/27 07:22:44;;;;;;;8.50;2.08;;;;;;;17.10;100.00;97773.38;5121016;28;20031;-94
2022/06/27 07:25:10;;;;;;;7.50;1.92;;;;;;;16.47;100.00;97767.66;5119827;28;20105;-95
2022/06/27 07:27:42;;;;;;;9.27;2.03;;;;;;;16.08;100.00;97786.22;5117946;28;20119;-95
2022/06/27 07:30:10;;;;;;;9.35;1.95;;;;;;;15.98;100.00;97788.44;5116005;28;20362;-96
2022/06/27 07:32:39;;;;;;;9.95;1.67;;;;;;;15.84;100.00;97783.81;5122799;28;20031;-94
2022/06/27 07:35:13;;;;;;;8.00;1.85;;;;;;;16.90;100.00;97791.03;5110493;28;20547;-91
2022/06/27 07:37:44;;;;;;;7.40;1.95;;;;;;;17.00;100.00;97796.69;5116142;28;20053;-96
2022/06/27 07:40:48;;;;;;;7.15;2.08;;;;;;;16.43;100.00;97791.59;5117559;27;20028;-95
2022/06/27 07:43:27;;;;;;;7.13;1.88;;;;;;;17.15;100.00;97801.19;5109391;28;20050;-95
2022/06/27 07:46:25;;;;;;;6.80;1.75;;;;;;;16.81;100.00;97802.88;5123598;28;20012;-95
2022/06/27 07:48:55;;;;;;;6.32;1.50;;;;;;;16.26;100.00;97806.41;5123454;28;20039;-95
2022/06/27 07:51:24;;;;;;;5.95;1.45;;;;;;;16.43;100.00;97817.91;5121791;28;20031;-92
2022/06/27 07:53:53;;;;;;;7.88;1.40;;;;;;;16.67;100.00;97808.81;5124549;28;20086;-94
2022/06/27 07:56:22;;;;;;;11.07;2.33;;;;;;;17.16;100.00;97810.81;5142394;27;20047;-95
2022/06/27 07:58:48;;;;;;;7.63;1.75;;;;;;;16.62;100.00;97810.81;5125627;27;20027;-93
2022/06/27 08:01:16;;;;;;;8.32;1.65;;;;;;;16.83;100.00;97805.44;5124970;27;20025;-94
2022/06/27 08:03:49;;;;;;;6.53;1.52;;;;;;;16.94;100.00;97813.66;5121896;27;20027;-92
2022/06/27 08:06:18;;;;;;;7.03;1.70;;;;;;;16.81;100.00;97817.78;5117429;27;20062;-95
2022/06/27 08:09:09;;;;;;;7.22;1.70;;;;;;;16.98;100.00;97815.22;5122723;27;20057;-96
2022/06/27 08:11:48;;;;;;;5.38;1.52;;;;;;;16.73;100.00;97815.56;5130226;27;20098;-95
2022/06/27 08:14:21;;;;;;;9.45;1.80;;;;;;;16.92;100.00;97818.16;5123123;27;20028;-94
2022/06/27 08:16:51;;;;;;;7.63;2.03;;;;;;;17.28;100.00;97830.38;5124778;27;20035;-96
2022/06/27 08:19:19;;;;;;;6.72;1.48;;;;;;;17.23;100.00;97829.78;5104102;22;20041;-96
2022/06/27 08:21:56;;;;;;;8.13;1.80;;;;;;;17.09;100.00;97821.72;5056107;28;20037;-93
2022/06/27 08:24:26;;;;;;;7.22;2.00;;;;;;;17.38;100.00;97828.13;5053362;28;20025;-94
2022/06/27 08:26:53;;;;;;;11.10;1.90;;;;;;;16.88;100.00;97832.34;5053973;28;20033;-95
2022/06/27 08:29:22;;;;;;;7.05;1.75;;;;;;;17.45;100.00;97823.41;5070610;28;20044;-95
2022/06/27 08:31:52;;;;;;;8.85;1.60;;;;;;;17.89;100.00;97820.19;5058559;28;20097;-96
2022/06/27 08:34:24;;;;;;;7.90;1.70;;;;;;;17.34;100.00;97837.13;5057621;28;20035;-94
2022/06/27 08:36:52;;;;;;;12.18;1.67;;;;;;;17.46;100.00;97815.41;5057400;28;20049;-94
2022/06/27 08:39:31;;;;;;;10.93;1.60;;;;;;;18.19;100.00;97835.31;5054674;28;20028;-94
2022/06/27 08:42:09;;;;;;;6.57;1.70;;;;;;;18.20;100.00;97829.94;5058405;28;20033;-94
2022/06/27 08:44:41;;;;;;;14.25;1.90;;;;;;;18.65;100.00;97827.47;5059551;28;20040;-96
2022/06/27 08:47:14;;;;;;;8.27;1.92;;;;;;;18.72;100.00;97828.81;5068708;28;20061;-96
2022/06/27 08:49:52;;;;;;;8.43;1.60;;;;;;;17.82;100.00;97835.50;5084129;28;20045;-96
2022/06/27 08:52:35;;;;;;;9.15;1.80;;;;;;;18.61;100.00;97847.06;5064121;28;20096;-96
2022/06/27 08:55:11;;;;;;;6.13;1.30;;;;;;;18.46;100.00;97840.84;5061852;28;20029;-96
2022/06/27 08:57:50;;;;;;;8.02;1.48;;;;;;;17.85;100.00;97855.59;5060085;28;20060;-94
2022/06/27 09:00:30;;;;;;;4.55;1.00;;;;;;;17.86;100.00;97846.75;5073323;28;20112;-96
2022/06/27 09:02:57;;;;;;;6.60;1.23;;;;;;;18.28;100.00;97834.81;5056956;28;20123;-96
2022/06/27 09:05:30;;;;;;;3.40;0.95;;;;;;;17.85;100.00;97839.75;5062521;28;20024;-96
2022/06/27 09:08:12;;;;;;;6.13;1.17;;;;;;;18.25;100.00;97845.53;5057120;28;20043;-96
2022/06/27 09:10:42;;;;;;;6.65;1.35;;;;;;;17.77;100.00;97855.13;5056509;28;20029;-95
2022/06/27 09:13:20;;;;;;;8.35;1.48;;;;;;;18.35;100.00;97845.88;5054587;28;20064;-96
2022/06/27 09:15:55;;;;;;;4.70;1.20;;;;;;;17.87;100.00;97841.38;5053020;28;20032;-96
2022/06/27 09:18:30;;;;;;;8.95;1.40;;;;;;;18.10;100.00;97856.94;5054484;28;20094;-95
2022/06/27 09:21:20;;;;;;;7.75;1.23;;;;;;;17.60;100.00;97864.78;5055425;28;20048;-96
2022/06/27 09:23:58;;;;;;;6.05;1.33;;;;;;;18.30;100.00;97854.06;5051589;28;20105;-96
2022/06/27 09:26:50;;;;;;;7.07;1.30;;;;;;;17.64;100.00;97866.31;5053488;28;20036;-96
2022/06/27 09:29:22;;;;;;;8.43;1.27;;;;;;;17.97;100.00;97875.19;5055174;28;20056;-95
2022/06/27 09:31:51;;;;;;;7.03;1.35;;;;;;;18.39;100.00;97882.59;5047913;28;20064;-96
2022/06/27 09:34:53;;;;;;;7.22;1.35;;;;;;;16.91;100.00;97899.88;5057458;28;20063;-96
2022/06/27 09:37:29;;;;;;;3.33;0.70;;;;;;;14.88;100.00;97911.34;5074172;28;20033;-93
2022/06/27 09:40:00;;;;;;;2.03;0.55;;;;;;;15.48;100.00;97900.16;5049563;28;20060;-93
2022/06/27 09:42:32;;;;;;;2.60;0.50;;;;;;;15.59;100.00;97911.03;5048458;28;20037;-93
2022/06/27 09:45:12;;;;;;;;;;;;;;;;;;;;;
2022/06/27 09:47:39;;;;;;;5.50;0.88;;;;;;;15.13;100.00;97920.88;5052031;28;20040;-96
2022/06/27 09:50:09;;;;;;;5.28;0.95;;;;;;;14.51;100.00;97924.09;5080846;22;20094;-91
2022/06/27 09:52:41;;;;;;;5.85;1.10;;;;;;;14.23;100.00;97932.16;5037347;28;20056;-91
2022/06/27 09:55:09;;;;;;;6.07;1.05;;;;;;;14.12;100.00;97939.56;5038129;28;20036;-91
2022/06/27 09:57:38;;;;;;;4.30;0.90;;;;;;;13.89;100.00;97936.03;5040397;28;20036;-91
2022/06/27 10:00:08;;;;;;;4.15;0.82;;;;;;;13.96;100.00;97940.13;5041194;28;20033;-92
2022/06/27 10:02:34;;;;;;;3.33;0.60;;;;;;;14.39;100.00;97937.72;5047090;28;20032;-91
2022/06/27 10:05:01;;;;;;;3.75;0.90;;;;;;;14.59;100.00;97923.81;5038775;28;20140;-93
2022/06/27 10:07:27;;;;;;;4.32;1.00;;;;;;;14.70;100.00;97939.19;5040105;28;20071;-93
2022/06/27 10:09:53;;;;;;;4.18;1.10;;;;;;;13.76;100.00;97947.84;5045430;28;20040;-92
2022/06/27 10:12:24;;;;;;;4.35;0.90;;;;;;;14.10;100.00;97957.16;5043794;28;20052;-93
2022/06/27 10:15:11;;;;;;;4.50;1.20;;;;;;;13.71;100.00;97955.88;5041117;28;20485;-94
2022/06/27 10:17:49;;;;;;;2.97;0.82;;;;;;;14.05;100.00;97959.06;5047263;28;20132;-93
2022/06/27 10:20:20;;;;;;;4.55;1.00;;;;;;;13.83;100.00;97957.19;5039049;28;20080;-95
2022/06/27 10:23:20;;;;;;;3.63;0.80;;;;;;;14.04;100.00;97960.81;5043819;28;20044;-93
2022/06/27 10:25:48;;;;;;;4.60;1.20;;;;;;;14.34;100.00;97966.72;5065613;28;20083;-91
2022/06/27 10:28:16;;;;;;;4.82;1.00;;;;;;;14.53;100.00;97966.03;5047189;28;20747;-93
2022/06/27 10:30:59;;;;;;;4.60;1.13;;;;;;;14.34;100.00;97971.13;5039879;28;20041;-94
2022/06/27 10:33:28;;;;;;;4.50;0.90;;;;;;;14.40;100.00;97956.91;5041403;28;20025;-93
2022/06/27 10:35:57;;;;;;;6.60;1.20;;;;;;;14.09;100.00;97965.91;5058794;28;20071;-93
2022/06/27 10:38:33;;;;;;;5.47;1.30;;;;;;;14.82;100.00;97964.09;5050285;28;20044;-94
2022/06/27 10:41:03;;;;;;;2.90;0.77;;;;;;;14.74;100.00;97951.28;5045361;28;20041;-94
2022/06/27 10:43:51;;;;;;;3.50;0.80;;;;;;;13.96;100.00;97987.31;5045494;28;20119;-94
2022/06/27 10:46:16;;;;;;;4.40;0.68;;;;;;;13.78;100.00;97987.97;5041242;28;20025;-94
2022/06/27 10:48:53;;;;;;;2.33;0.77;;;;;;;13.98;100.00;97974.16;5045320;28;20070;-92
2022/06/27 10:51:22;;;;;;;4.05;1.00;;;;;;;14.55;100.00;97976.47;5038614;28;20037;-94
2022/06/27 10:54:09;;;;;;;4.93;1.02;;;;;;;15.66;100.00;97978.19;5043862;28;20075;-92
2022/06/27 10:56:37;;;;;;;5.97;1.60;;;;;;;15.00;100.00;97955.50;5045861;28;20037;-94
2022/06/27 10:59:05;;;;;;;6.38;1.75;;;;;;;15.10;100.00;97976.13;5050905;28;20025;-93
2022/06/27 11:01:32;;;;;;;11.02;4.47;;;;;;;15.09;100.00;97977.91;5043834;28;20029;-94
2022/06/27 11:03:58;;;;;;;8.05;3.17;;;;;;;15.88;100.00;97982.59;5045886;28;20793;-93
2022/06/27 11:06:25;;;;;;;8.73;2.92;;;;;;;15.39;100.00;97987.22;5042376;28;20199;-95
2022/06/27 11:08:54;;;;;;;8.63;3.53;;;;;;;14.55;100.00;97979.94;5045927;28;20030;-95
2022/06/27 11:11:25;;;;;;;9.85;3.97;;;;;;;15.43;100.00;97978.31;5048037;28;20037;-95
2022/06/27 11:13:58;;;;;;;12.95;4.43;;;;;;;14.68;100.00;97986.50;5046233;28;20075;-94
2022/06/27 11:16:32;;;;;;;9.05;4.10;;;;;;;17.19;100.00;97992.44;5046006;28;20025;-94
2022/06/27 11:19:02;;;;;;;10.50;3.83;;;;;;;14.95;100.00;97988.09;5068861;28;20036;-95
2022/06/27 11:21:38;;;;;;;11.35;2.78;;;;;;;15.22;100.00;97996.66;5061407;28;21007;-94
2022/06/27 11:24:07;;;;;;;6.22;1.45;;;;;;;14.93;100.00;97998.63;5043733;28;20021;-94
2022/06/27 11:26:48;;;;;;;3.70;1.10;;;;;;;14.72;100.00;97996.88;5045099;28;20041;-96
2022/06/27 11:32:10;;;;;;;6.38;1.38;;;;;;;14.69;100.00;97989.97;5052368;28;20035;-94
2022/06/27 11:34:41;;;;;;;9.00;1.70;;;;;;;15.05;100.00;97992.06;5068731;28;20044;-94
2022/06/27 11:37:13;;;;;;;6.55;1.55;;;;;;;15.74;100.00;97987.53;5050207;28;20051;-95
2022/06/27 11:40:05;;;;;;;9.80;2.03;;;;;;;16.10;100.00;97992.16;5053124;28;20488;-94
2022/06/27 11:42:33;;;;;;;6.97;1.83;;;;;;;15.72;100.00;97994.63;5064897;28;20154;-95
2022/06/27 11:45:10;;;;;;;8.05;2.25;;;;;;;15.54;100.00;98005.00;5045100;28;20029;-95